sensor_id;sensor_type;location;lat;lon;timestamp;P1;durP1;ratioP1;P2;durP2;ratioP2
36205;SDS011;22242;48.796;9.930;2023-09-12T00:00:47;7.90;;;4.57;;
36205;SDS011;22242;48.796;9.930;2023-09-12T00:03:14;6.70;;;3.85;;
36205;SDS011;22242;48.796;9.930;2023-09-12T00:05:50;10.52;;;3.95;;
36205;SDS011;22242;48.796;9.930;2023-09-12T00:08:17;9.30;;;4.57;;
36205;SDS011;22242;48.796;9.930;2023-09-12T00:10:44;9.25;;;4.38;;
36205;SDS011;22242;48.796;9.930;2023-09-12T00:13:12;6.43;;;3.90;;
36205;SDS011;22242;48.796;9.930;2023-09-12T00:15:40;11.55;;;3.50;;
36205;SDS011;22242;48.796;9.930;2023-09-12T00:18:07;9.73;;;4.38;;
36205;SDS011;22242;48.796;9.930;2023-09-12T00:20:35;9.45;;;3.85;;
36205;SDS011;22242;48.796;9.930;2023-09-12T00:23:02;12.35;;;4.30;;
36205;SDS011;22242;48.796;9.930;2023-09-12T00:25:30;11.07;;;4.57;;
36205;SDS011;22242;48.796;9.930;2023-09-12T00:27:57;14.73;;;6.32;;
36205;SDS011;22242;48.796;9.930;2023-09-12T00:30:24;9.00;;;4.65;;
36205;SDS011;22242;48.796;9.930;2023-09-12T00:32:53;10.68;;;5.38;;
36205;SDS011;22242;48.796;9.930;2023-09-12T00:35:20;11.48;;;4.70;;
36205;SDS011;22242;48.796;9.930;2023-09-12T00:37:47;8.70;;;4.75;;
36205;SDS011;22242;48.796;9.930;2023-09-12T00:40:14;11.75;;;4.80;;
36205;SDS011;22242;48.796;9.930;2023-09-12T00:42:41;9.93;;;4.50;;
36205;SDS011;22242;48.796;9.930;2023-09-12T00:45:08;7.90;;;3.97;;
36205;SDS011;22242;48.796;9.930;2023-09-12T00:47:36;13.73;;;4.05;;
36205;SDS011;22242;48.796;9.930;2023-09-12T00:50:05;8.98;;;4.75;;
36205;SDS011;22242;48.796;9.930;2023-09-12T00:52:35;7.82;;;4.10;;
36205;SDS011;22242;48.796;9.930;2023-09-12T00:55:05;9.02;;;5.25;;
36205;SDS011;22242;48.796;9.930;2023-09-12T00:57:32;16.20;;;5.22;;
36205;SDS011;22242;48.796;9.930;2023-09-12T01:00:01;16.23;;;5.13;;
36205;SDS011;22242;48.796;9.930;2023-09-12T01:02:36;15.30;;;4.78;;
36205;SDS011;22242;48.796;9.930;2023-09-12T01:05:06;9.48;;;4.78;;
36205;SDS011;22242;48.796;9.930;2023-09-12T01:07:34;8.40;;;4.45;;
36205;SDS011;22242;48.796;9.930;2023-09-12T01:10:02;10.23;;;4.85;;
36205;SDS011;22242;48.796;9.930;2023-09-12T01:12:29;9.88;;;5.00;;
36205;SDS011;22242;48.796;9.930;2023-09-12T01:14:56;9.85;;;5.07;;
36205;SDS011;22242;48.796;9.930;2023-09-12T01:17:24;8.85;;;4.72;;
36205;SDS011;22242;48.796;9.930;2023-09-12T01:19:52;12.75;;;5.43;;
36205;SDS011;22242;48.796;9.930;2023-09-12T01:22:31;11.13;;;4.80;;
36205;SDS011;22242;48.796;9.930;2023-09-12T01:25:34;7.75;;;5.43;;
36205;SDS011;22242;48.796;9.930;2023-09-12T01:28:24;12.05;;;4.97;;
36205;SDS011;22242;48.796;9.930;2023-09-12T01:30:55;9.85;;;5.90;;
36205;SDS011;22242;48.796;9.930;2023-09-12T01:33:25;12.23;;;5.07;;
36205;SDS011;22242;48.796;9.930;2023-09-12T01:35:52;12.50;;;6.22;;
36205;SDS011;22242;48.796;9.930;2023-09-12T01:38:20;8.95;;;4.78;;
36205;SDS011;22242;48.796;9.930;2023-09-12T01:40:48;9.65;;;5.57;;
36205;SDS011;22242;48.796;9.930;2023-09-12T01:43:17;11.85;;;5.25;;
36205;SDS011;22242;48.796;9.930;2023-09-12T01:45:49;11.23;;;5.45;;
36205;SDS011;22242;48.796;9.930;2023-09-12T01:48:19;8.07;;;4.65;;
36205;SDS011;22242;48.796;9.930;2023-09-12T01:50:48;12.95;;;5.53;;
36205;SDS011;22242;48.796;9.930;2023-09-12T01:53:15;10.80;;;5.57;;
36205;SDS011;22242;48.796;9.930;2023-09-12T01:55:43;12.88;;;5.07;;
36205;SDS011;22242;48.796;9.930;2023-09-12T01:58:11;8.30;;;5.45;;
36205;SDS011;22242;48.796;9.930;2023-09-12T02:00:39;8.10;;;5.28;;
36205;SDS011;22242;48.796;9.930;2023-09-12T02:03:07;12.15;;;5.70;;
36205;SDS011;22242;48.796;9.930;2023-09-12T02:05:34;7.78;;;4.85;;
36205;SDS011;22242;48.796;9.930;2023-09-12T02:08:02;9.68;;;5.72;;
36205;SDS011;22242;48.796;9.930;2023-09-12T02:10:30;9.25;;;5.15;;
36205;SDS011;22242;48.796;9.930;2023-09-12T02:12:57;9.18;;;5.78;;
36205;SDS011;22242;48.796;9.930;2023-09-12T02:15:24;11.55;;;5.32;;
36205;SDS011;22242;48.796;9.930;2023-09-12T02:17:51;11.45;;;5.45;;
36205;SDS011;22242;48.796;9.930;2023-09-12T02:20:19;9.88;;;5.90;;
36205;SDS011;22242;48.796;9.930;2023-09-12T02:22:47;12.13;;;5.97;;
36205;SDS011;22242;48.796;9.930;2023-09-12T02:25:14;12.52;;;6.03;;
36205;SDS011;22242;48.796;9.930;2023-09-12T02:27:41;19.20;;;5.97;;
36205;SDS011;22242;48.796;9.930;2023-09-12T02:30:08;11.32;;;5.97;;
36205;SDS011;22242;48.796;9.930;2023-09-12T02:32:36;15.38;;;6.72;;
36205;SDS011;22242;48.796;9.930;2023-09-12T02:35:03;12.02;;;6.35;;
36205;SDS011;22242;48.796;9.930;2023-09-12T02:37:31;10.80;;;6.05;;
36205;SDS011;22242;48.796;9.930;2023-09-12T02:39:58;16.58;;;5.95;;
36205;SDS011;22242;48.796;9.930;2023-09-12T02:42:25;15.57;;;6.88;;
36205;SDS011;22242;48.796;9.930;2023-09-12T02:44:52;15.05;;;7.30;;
36205;SDS011;22242;48.796;9.930;2023-09-12T02:47:19;10.55;;;6.15;;
36205;SDS011;22242;48.796;9.930;2023-09-12T02:49:46;11.85;;;5.80;;
36205;SDS011;22242;48.796;9.930;2023-09-12T02:52:13;11.30;;;5.80;;
36205;SDS011;22242;48.796;9.930;2023-09-12T02:54:42;17.98;;;6.53;;
36205;SDS011;22242;48.796;9.930;2023-09-12T02:57:09;11.93;;;6.03;;
36205;SDS011;22242;48.796;9.930;2023-09-12T02:59:36;11.45;;;5.60;;
36205;SDS011;22242;48.796;9.930;2023-09-12T03:02:03;10.02;;;5.88;;
36205;SDS011;22242;48.796;9.930;2023-09-12T03:04:29;9.65;;;5.93;;
36205;SDS011;22242;48.796;9.930;2023-09-12T03:06:57;13.05;;;5.88;;
36205;SDS011;22242;48.796;9.930;2023-09-12T03:09:24;10.38;;;6.18;;
36205;SDS011;22242;48.796;9.930;2023-09-12T03:11:52;9.68;;;5.50;;
36205;SDS011;22242;48.796;9.930;2023-09-12T03:14:19;9.82;;;6.00;;
36205;SDS011;22242;48.796;9.930;2023-09-12T03:16:46;10.15;;;5.35;;
36205;SDS011;22242;48.796;9.930;2023-09-12T03:19:13;15.00;;;5.80;;
36205;SDS011;22242;48.796;9.930;2023-09-12T03:21:40;11.07;;;5.68;;
36205;SDS011;22242;48.796;9.930;2023-09-12T03:24:07;16.23;;;5.28;;
36205;SDS011;22242;48.796;9.930;2023-09-12T03:26:35;11.93;;;4.90;;
36205;SDS011;22242;48.796;9.930;2023-09-12T03:29:04;10.93;;;5.72;;
36205;SDS011;22242;48.796;9.930;2023-09-12T03:31:31;12.73;;;5.57;;
36205;SDS011;22242;48.796;9.930;2023-09-12T03:33:58;8.18;;;5.13;;
36205;SDS011;22242;48.796;9.930;2023-09-12T03:36:25;12.05;;;5.45;;
36205;SDS011;22242;48.796;9.930;2023-09-12T03:38:52;9.45;;;5.47;;
36205;SDS011;22242;48.796;9.930;2023-09-12T03:41:20;9.00;;;6.15;;
36205;SDS011;22242;48.796;9.930;2023-09-12T03:43:52;13.88;;;5.80;;
36205;SDS011;22242;48.796;9.930;2023-09-12T03:46:21;9.93;;;5.25;;
36205;SDS011;22242;48.796;9.930;2023-09-12T03:48:48;13.57;;;5.38;;
36205;SDS011;22242;48.796;9.930;2023-09-12T03:51:15;8.75;;;5.88;;
36205;SDS011;22242;48.796;9.930;2023-09-12T03:53:42;13.52;;;6.13;;
36205;SDS011;22242;48.796;9.930;2023-09-12T03:56:09;16.27;;;6.45;;
36205;SDS011;22242;48.796;9.930;2023-09-12T03:58:38;12.35;;;5.80;;
36205;SDS011;22242;48.796;9.930;2023-09-12T04:01:05;14.30;;;5.95;;
36205;SDS011;22242;48.796;9.930;2023-09-12T04:03:34;7.47;;;5.55;;
36205;SDS011;22242;48.796;9.930;2023-09-12T04:06:01;11.50;;;6.22;;
36205;SDS011;22242;48.796;9.930;2023-09-12T04:08:28;10.25;;;6.18;;
36205;SDS011;22242;48.796;9.930;2023-09-12T04:10:55;15.07;;;6.32;;
36205;SDS011;22242;48.796;9.930;2023-09-12T04:13:22;8.52;;;5.65;;
36205;SDS011;22242;48.796;9.930;2023-09-12T04:15:48;10.48;;;5.72;;
36205;SDS011;22242;48.796;9.930;2023-09-12T04:18:16;9.07;;;5.50;;
36205;SDS011;22242;48.796;9.930;2023-09-12T04:20:44;12.13;;;6.65;;
36205;SDS011;22242;48.796;9.930;2023-09-12T04:23:11;13.85;;;5.97;;
36205;SDS011;22242;48.796;9.930;2023-09-12T04:25:38;9.10;;;5.97;;
36205;SDS011;22242;48.796;9.930;2023-09-12T04:28:08;14.65;;;6.85;;
36205;SDS011;22242;48.796;9.930;2023-09-12T04:30:36;8.93;;;6.45;;
36205;SDS011;22242;48.796;9.930;2023-09-12T04:33:04;11.73;;;6.80;;
36205;SDS011;22242;48.796;9.930;2023-09-12T04:35:32;14.57;;;7.43;;
36205;SDS011;22242;48.796;9.930;2023-09-12T04:38:01;11.55;;;6.45;;
36205;SDS011;22242;48.796;9.930;2023-09-12T04:40:28;14.18;;;6.82;;
36205;SDS011;22242;48.796;9.930;2023-09-12T04:42:56;13.65;;;7.00;;
36205;SDS011;22242;48.796;9.930;2023-09-12T04:45:24;12.15;;;7.38;;
36205;SDS011;22242;48.796;9.930;2023-09-12T04:47:51;12.48;;;7.13;;
36205;SDS011;22242;48.796;9.930;2023-09-12T04:50:18;13.00;;;7.20;;
36205;SDS011;22242;48.796;9.930;2023-09-12T04:52:45;11.55;;;7.03;;
36205;SDS011;22242;48.796;9.930;2023-09-12T04:55:13;12.10;;;6.95;;
36205;SDS011;22242;48.796;9.930;2023-09-12T04:57:40;17.83;;;7.10;;
36205;SDS011;22242;48.796;9.930;2023-09-12T05:00:08;12.38;;;7.05;;
36205;SDS011;22242;48.796;9.930;2023-09-12T05:02:36;14.43;;;6.78;;
36205;SDS011;22242;48.796;9.930;2023-09-12T05:05:03;14.27;;;6.85;;
36205;SDS011;22242;48.796;9.930;2023-09-12T05:07:31;13.60;;;7.05;;
36205;SDS011;22242;48.796;9.930;2023-09-12T05:09:59;16.05;;;7.82;;
36205;SDS011;22242;48.796;9.930;2023-09-12T05:12:27;17.60;;;7.20;;
36205;SDS011;22242;48.796;9.930;2023-09-12T05:14:55;10.18;;;6.75;;
36205;SDS011;22242;48.796;9.930;2023-09-12T05:17:21;14.02;;;7.57;;
36205;SDS011;22242;48.796;9.930;2023-09-12T05:19:48;11.90;;;7.07;;
36205;SDS011;22242;48.796;9.930;2023-09-12T05:22:15;13.57;;;7.07;;
36205;SDS011;22242;48.796;9.930;2023-09-12T05:24:42;10.27;;;6.60;;
36205;SDS011;22242;48.796;9.930;2023-09-12T05:27:11;12.13;;;7.50;;
36205;SDS011;22242;48.796;9.930;2023-09-12T05:29:39;14.38;;;6.90;;
36205;SDS011;22242;48.796;9.930;2023-09-12T05:32:07;14.98;;;7.18;;
36205;SDS011;22242;48.796;9.930;2023-09-12T05:34:34;13.68;;;7.43;;
36205;SDS011;22242;48.796;9.930;2023-09-12T05:37:01;13.02;;;7.35;;
36205;SDS011;22242;48.796;9.930;2023-09-12T05:39:28;13.90;;;7.53;;
36205;SDS011;22242;48.796;9.930;2023-09-12T05:41:55;13.40;;;7.95;;
36205;SDS011;22242;48.796;9.930;2023-09-12T05:44:22;14.07;;;6.85;;
36205;SDS011;22242;48.796;9.930;2023-09-12T05:46:51;10.77;;;6.80;;
36205;SDS011;22242;48.796;9.930;2023-09-12T05:49:19;21.48;;;7.47;;
36205;SDS011;22242;48.796;9.930;2023-09-12T05:51:46;11.90;;;7.20;;
36205;SDS011;22242;48.796;9.930;2023-09-12T05:54:13;12.93;;;7.30;;
36205;SDS011;22242;48.796;9.930;2023-09-12T05:56:40;15.55;;;8.18;;
36205;SDS011;22242;48.796;9.930;2023-09-12T05:59:08;16.40;;;7.45;;
36205;SDS011;22242;48.796;9.930;2023-09-12T06:01:35;14.18;;;7.00;;
36205;SDS011;22242;48.796;9.930;2023-09-12T06:04:04;16.45;;;7.28;;
36205;SDS011;22242;48.796;9.930;2023-09-12T06:06:31;14.95;;;7.25;;
36205;SDS011;22242;48.796;9.930;2023-09-12T06:08:58;13.57;;;7.38;;
36205;SDS011;22242;48.796;9.930;2023-09-12T06:11:25;16.75;;;7.30;;
36205;SDS011;22242;48.796;9.930;2023-09-12T06:13:52;16.17;;;7.38;;
36205;SDS011;22242;48.796;9.930;2023-09-12T06:16:19;13.27;;;7.55;;
36205;SDS011;22242;48.796;9.930;2023-09-12T06:18:46;15.90;;;6.75;;
36205;SDS011;22242;48.796;9.930;2023-09-12T06:21:15;15.77;;;7.32;;
36205;SDS011;22242;48.796;9.930;2023-09-12T06:23:42;12.82;;;7.15;;
36205;SDS011;22242;48.796;9.930;2023-09-12T06:26:09;11.63;;;6.78;;
36205;SDS011;22242;48.796;9.930;2023-09-12T06:28:36;16.98;;;7.68;;
36205;SDS011;22242;48.796;9.930;2023-09-12T06:31:03;12.45;;;7.07;;
36205;SDS011;22242;48.796;9.930;2023-09-12T06:33:33;15.13;;;7.15;;
36205;SDS011;22242;48.796;9.930;2023-09-12T06:36:01;10.32;;;6.28;;
36205;SDS011;22242;48.796;9.930;2023-09-12T06:38:30;11.20;;;6.40;;
36205;SDS011;22242;48.796;9.930;2023-09-12T06:40:57;14.30;;;6.55;;
36205;SDS011;22242;48.796;9.930;2023-09-12T06:43:24;9.07;;;5.18;;
36205;SDS011;22242;48.796;9.930;2023-09-12T06:45:51;9.05;;;6.13;;
36205;SDS011;22242;48.796;9.930;2023-09-12T06:48:18;12.75;;;5.80;;
36205;SDS011;22242;48.796;9.930;2023-09-12T06:50:45;9.25;;;5.57;;
36205;SDS011;22242;48.796;9.930;2023-09-12T06:53:12;11.90;;;5.70;;
36205;SDS011;22242;48.796;9.930;2023-09-12T06:55:40;11.82;;;5.93;;
36205;SDS011;22242;48.796;9.930;2023-09-12T06:58:07;10.65;;;5.78;;
36205;SDS011;22242;48.796;9.930;2023-09-12T07:00:34;8.80;;;5.63;;
36205;SDS011;22242;48.796;9.930;2023-09-12T07:03:01;9.85;;;5.95;;
36205;SDS011;22242;48.796;9.930;2023-09-12T07:05:28;10.43;;;6.70;;
36205;SDS011;22242;48.796;9.930;2023-09-12T07:07:55;8.82;;;6.00;;
36205;SDS011;22242;48.796;9.930;2023-09-12T07:10:22;10.52;;;6.30;;
36205;SDS011;22242;48.796;9.930;2023-09-12T07:12:50;13.70;;;6.45;;
36205;SDS011;22242;48.796;9.930;2023-09-12T07:15:18;10.60;;;6.05;;
36205;SDS011;22242;48.796;9.930;2023-09-12T07:17:45;14.40;;;6.03;;
36205;SDS011;22242;48.796;9.930;2023-09-12T07:20:12;21.50;;;7.57;;
36205;SDS011;22242;48.796;9.930;2023-09-12T07:22:41;13.10;;;7.13;;
36205;SDS011;22242;48.796;9.930;2023-09-12T07:25:08;13.07;;;6.72;;
36205;SDS011;22242;48.796;9.930;2023-09-12T07:27:36;11.35;;;6.20;;
36205;SDS011;22242;48.796;9.930;2023-09-12T07:30:05;13.55;;;6.97;;
36205;SDS011;22242;48.796;9.930;2023-09-12T07:32:33;12.55;;;6.63;;
36205;SDS011;22242;48.796;9.930;2023-09-12T07:35:00;9.38;;;5.93;;
36205;SDS011;22242;48.796;9.930;2023-09-12T07:37:28;10.07;;;6.53;;
36205;SDS011;22242;48.796;9.930;2023-09-12T07:39:55;12.60;;;5.75;;
36205;SDS011;22242;48.796;9.930;2023-09-12T07:42:22;10.68;;;7.45;;
36205;SDS011;22242;48.796;9.930;2023-09-12T07:44:49;11.90;;;6.72;;
36205;SDS011;22242;48.796;9.930;2023-09-12T07:47:18;11.32;;;6.38;;
36205;SDS011;22242;48.796;9.930;2023-09-12T07:49:45;14.02;;;6.22;;
36205;SDS011;22242;48.796;9.930;2023-09-12T07:52:18;9.30;;;6.18;;
36205;SDS011;22242;48.796;9.930;2023-09-12T07:54:45;13.10;;;6.57;;
36205;SDS011;22242;48.796;9.930;2023-09-12T07:57:13;7.18;;;5.85;;
36205;SDS011;22242;48.796;9.930;2023-09-12T07:59:40;9.75;;;6.40;;
36205;SDS011;22242;48.796;9.930;2023-09-12T08:02:06;9.32;;;6.55;;
36205;SDS011;22242;48.796;9.930;2023-09-12T08:04:35;11.30;;;5.80;;
36205;SDS011;22242;48.796;9.930;2023-09-12T08:07:02;7.32;;;6.13;;
36205;SDS011;22242;48.796;9.930;2023-09-12T08:12:15;6.45;;;5.40;;
36205;SDS011;22242;48.796;9.930;2023-09-12T08:14:42;11.32;;;5.95;;
36205;SDS011;22242;48.796;9.930;2023-09-12T08:17:10;6.28;;;5.38;;
36205;SDS011;22242;48.796;9.930;2023-09-12T08:19:39;6.20;;;5.28;;
36205;SDS011;22242;48.796;9.930;2023-09-12T08:22:06;8.88;;;5.30;;
36205;SDS011;22242;48.796;9.930;2023-09-12T08:24:34;8.20;;;5.43;;
36205;SDS011;22242;48.796;9.930;2023-09-12T08:27:01;8.95;;;5.50;;
36205;SDS011;22242;48.796;9.930;2023-09-12T08:29:29;12.63;;;6.63;;
36205;SDS011;22242;48.796;9.930;2023-09-12T08:31:57;7.88;;;5.57;;
36205;SDS011;22242;48.796;9.930;2023-09-12T08:34:24;5.93;;;5.32;;
36205;SDS011;22242;48.796;9.930;2023-09-12T08:36:52;8.13;;;5.65;;
36205;SDS011;22242;48.796;9.930;2023-09-12T08:39:22;5.75;;;5.22;;
36205;SDS011;22242;48.796;9.930;2023-09-12T08:41:50;7.22;;;5.80;;
36205;SDS011;22242;48.796;9.930;2023-09-12T08:44:18;9.15;;;5.70;;
36205;SDS011;22242;48.796;9.930;2023-09-12T08:46:47;5.60;;;5.10;;
36205;SDS011;22242;48.796;9.930;2023-09-12T08:49:14;7.68;;;5.57;;
36205;SDS011;22242;48.796;9.930;2023-09-12T08:51:42;6.30;;;5.10;;
36205;SDS011;22242;48.796;9.930;2023-09-12T08:54:14;10.57;;;5.85;;
36205;SDS011;22242;48.796;9.930;2023-09-12T08:56:42;8.45;;;6.07;;
36205;SDS011;22242;48.796;9.930;2023-09-12T08:59:10;7.07;;;5.43;;
36205;SDS011;22242;48.796;9.930;2023-09-12T09:01:38;6.72;;;5.68;;
36205;SDS011;22242;48.796;9.930;2023-09-12T09:04:05;6.65;;;5.43;;
36205;SDS011;22242;48.796;9.930;2023-09-12T09:06:33;7.25;;;5.43;;
36205;SDS011;22242;48.796;9.930;2023-09-12T09:09:03;8.65;;;5.88;;
36205;SDS011;22242;48.796;9.930;2023-09-12T09:11:34;8.63;;;6.00;;
36205;SDS011;22242;48.796;9.930;2023-09-12T09:14:01;10.05;;;6.53;;
36205;SDS011;22242;48.796;9.930;2023-09-12T09:16:29;9.98;;;6.57;;
36205;SDS011;22242;48.796;9.930;2023-09-12T09:18:57;8.65;;;6.50;;
36205;SDS011;22242;48.796;9.930;2023-09-12T09:21:27;7.13;;;6.40;;
36205;SDS011;22242;48.796;9.930;2023-09-12T09:23:56;7.97;;;6.03;;
36205;SDS011;22242;48.796;9.930;2023-09-12T09:26:24;10.07;;;5.75;;
36205;SDS011;22242;48.796;9.930;2023-09-12T09:29:03;9.68;;;5.60;;
36205;SDS011;22242;48.796;9.930;2023-09-12T09:31:32;8.27;;;6.03;;
36205;SDS011;22242;48.796;9.930;2023-09-12T09:33:59;10.63;;;5.78;;
36205;SDS011;22242;48.796;9.930;2023-09-12T09:36:28;12.00;;;6.38;;
36205;SDS011;22242;48.796;9.930;2023-09-12T09:38:56;6.38;;;5.72;;
36205;SDS011;22242;48.796;9.930;2023-09-12T09:41:24;7.93;;;5.38;;
36205;SDS011;22242;48.796;9.930;2023-09-12T09:43:52;6.80;;;5.38;;
36205;SDS011;22242;48.796;9.930;2023-09-12T09:46:20;7.85;;;5.72;;
36205;SDS011;22242;48.796;9.930;2023-09-12T09:48:48;6.85;;;5.97;;
36205;SDS011;22242;48.796;9.930;2023-09-12T09:51:16;7.20;;;5.60;;
36205;SDS011;22242;48.796;9.930;2023-09-12T09:53:43;7.07;;;5.78;;
36205;SDS011;22242;48.796;9.930;2023-09-12T09:56:11;5.82;;;5.32;;
36205;SDS011;22242;48.796;9.930;2023-09-12T09:58:42;7.82;;;5.88;;
36205;SDS011;22242;48.796;9.930;2023-09-12T10:01:14;7.65;;;5.80;;
36205;SDS011;22242;48.796;9.930;2023-09-12T10:03:46;8.23;;;5.50;;
36205;SDS011;22242;48.796;9.930;2023-09-12T10:06:14;7.97;;;5.35;;
36205;SDS011;22242;48.796;9.930;2023-09-12T10:08:43;7.63;;;5.60;;
36205;SDS011;22242;48.796;9.930;2023-09-12T10:11:12;7.57;;;5.57;;
36205;SDS011;22242;48.796;9.930;2023-09-12T10:13:41;6.40;;;5.75;;
36205;SDS011;22242;48.796;9.930;2023-09-12T10:16:15;6.57;;;5.97;;
36205;SDS011;22242;48.796;9.930;2023-09-12T10:18:44;6.88;;;5.97;;
36205;SDS011;22242;48.796;9.930;2023-09-12T10:21:21;6.20;;;5.50;;
36205;SDS011;22242;48.796;9.930;2023-09-12T10:23:54;6.10;;;5.60;;
36205;SDS011;22242;48.796;9.930;2023-09-12T10:26:24;5.80;;;5.30;;
36205;SDS011;22242;48.796;9.930;2023-09-12T10:28:52;5.82;;;5.25;;
36205;SDS011;22242;48.796;9.930;2023-09-12T10:31:20;5.40;;;4.90;;
36205;SDS011;22242;48.796;9.930;2023-09-12T10:33:52;6.63;;;5.50;;
36205;SDS011;22242;48.796;9.930;2023-09-12T10:36:19;7.07;;;5.28;;
36205;SDS011;22242;48.796;9.930;2023-09-12T10:38:49;6.93;;;5.40;;
36205;SDS011;22242;48.796;9.930;2023-09-12T10:41:18;5.80;;;5.13;;
36205;SDS011;22242;48.796;9.930;2023-09-12T10:43:46;6.53;;;5.95;;
36205;SDS011;22242;48.796;9.930;2023-09-12T10:46:17;6.07;;;5.50;;
36205;SDS011;22242;48.796;9.930;2023-09-12T10:48:46;6.47;;;5.75;;
36205;SDS011;22242;48.796;9.930;2023-09-12T10:51:15;6.13;;;5.53;;
36205;SDS011;22242;48.796;9.930;2023-09-12T10:53:45;6.40;;;5.57;;
36205;SDS011;22242;48.796;9.930;2023-09-12T10:56:14;5.60;;;5.10;;
36205;SDS011;22242;48.796;9.930;2023-09-12T11:04:05;5.65;;;5.13;;
36205;SDS011;22242;48.796;9.930;2023-09-12T11:12:46;5.65;;;5.15;;
36205;SDS011;22242;48.796;9.930;2023-09-12T11:15:15;6.05;;;5.55;;
36205;SDS011;22242;48.796;9.930;2023-09-12T11:17:43;6.15;;;5.55;;
36205;SDS011;22242;48.796;9.930;2023-09-12T11:20:11;7.22;;;5.10;;
36205;SDS011;22242;48.796;9.930;2023-09-12T11:22:41;5.80;;;5.38;;
36205;SDS011;22242;48.796;9.930;2023-09-12T11:25:15;6.68;;;5.05;;
36205;SDS011;22242;48.796;9.930;2023-09-12T11:27:45;5.82;;;5.32;;
36205;SDS011;22242;48.796;9.930;2023-09-12T11:30:29;6.18;;;5.70;;
36205;SDS011;22242;48.796;9.930;2023-09-12T11:32:57;5.50;;;5.10;;
36205;SDS011;22242;48.796;9.930;2023-09-12T11:35:25;5.75;;;5.25;;
36205;SDS011;22242;48.796;9.930;2023-09-12T11:37:55;6.55;;;5.15;;
36205;SDS011;22242;48.796;9.930;2023-09-12T11:40:25;9.07;;;5.03;;
36205;SDS011;22242;48.796;9.930;2023-09-12T11:42:52;5.28;;;4.82;;
36205;SDS011;22242;48.796;9.930;2023-09-12T11:45:20;7.82;;;5.25;;
36205;SDS011;22242;48.796;9.930;2023-09-12T11:47:48;5.70;;;5.13;;
36205;SDS011;22242;48.796;9.930;2023-09-12T11:50:30;5.78;;;5.25;;
36205;SDS011;22242;48.796;9.930;2023-09-12T11:53:01;6.43;;;4.72;;
36205;SDS011;22242;48.796;9.930;2023-09-12T11:55:33;7.22;;;5.20;;
36205;SDS011;22242;48.796;9.930;2023-09-12T11:58:01;5.30;;;4.80;;
36205;SDS011;22242;48.796;9.930;2023-09-12T12:00:28;6.38;;;5.35;;
36205;SDS011;22242;48.796;9.930;2023-09-12T12:02:57;6.28;;;4.72;;
36205;SDS011;22242;48.796;9.930;2023-09-12T12:05:24;7.38;;;4.55;;
36205;SDS011;22242;48.796;9.930;2023-09-12T12:07:52;5.18;;;4.75;;
36205;SDS011;22242;48.796;9.930;2023-09-12T12:10:20;7.22;;;5.20;;
36205;SDS011;22242;48.796;9.930;2023-09-12T12:12:52;6.25;;;5.03;;
36205;SDS011;22242;48.796;9.930;2023-09-12T12:15:19;6.68;;;5.13;;
36205;SDS011;22242;48.796;9.930;2023-09-12T12:17:47;6.53;;;4.57;;
36205;SDS011;22242;48.796;9.930;2023-09-12T12:20:14;5.32;;;4.82;;
36205;SDS011;22242;48.796;9.930;2023-09-12T12:22:41;7.22;;;4.88;;
36205;SDS011;22242;48.796;9.930;2023-09-12T12:25:09;5.70;;;4.95;;
36205;SDS011;22242;48.796;9.930;2023-09-12T12:27:39;6.03;;;4.78;;
36205;SDS011;22242;48.796;9.930;2023-09-12T12:30:07;6.85;;;5.40;;
36205;SDS011;22242;48.796;9.930;2023-09-12T12:32:35;9.63;;;5.35;;
36205;SDS011;22242;48.796;9.930;2023-09-12T12:35:06;7.90;;;5.07;;
36205;SDS011;22242;48.796;9.930;2023-09-12T12:37:33;6.30;;;4.70;;
36205;SDS011;22242;48.796;9.930;2023-09-12T12:40:02;5.75;;;5.10;;
36205;SDS011;22242;48.796;9.930;2023-09-12T12:42:32;6.40;;;4.90;;
36205;SDS011;22242;48.796;9.930;2023-09-12T12:45:02;5.47;;;4.88;;
36205;SDS011;22242;48.796;9.930;2023-09-12T12:47:36;5.60;;;5.15;;
36205;SDS011;22242;48.796;9.930;2023-09-12T12:50:07;7.47;;;5.10;;
36205;SDS011;22242;48.796;9.930;2023-09-12T12:52:35;5.85;;;5.32;;
36205;SDS011;22242;48.796;9.930;2023-09-12T12:55:03;9.65;;;5.13;;
36205;SDS011;22242;48.796;9.930;2023-09-12T12:57:31;5.50;;;4.97;;
36205;SDS011;22242;48.796;9.930;2023-09-12T12:59:58;7.60;;;5.18;;
36205;SDS011;22242;48.796;9.930;2023-09-12T13:02:27;7.68;;;5.20;;
36205;SDS011;22242;48.796;9.930;2023-09-12T13:04:54;7.18;;;4.80;;
36205;SDS011;22242;48.796;9.930;2023-09-12T13:07:20;7.30;;;5.20;;
36205;SDS011;22242;48.796;9.930;2023-09-12T13:09:47;8.27;;;5.30;;
36205;SDS011;22242;48.796;9.930;2023-09-12T13:12:14;6.00;;;4.85;;
36205;SDS011;22242;48.796;9.930;2023-09-12T13:14:42;7.50;;;5.07;;
36205;SDS011;22242;48.796;9.930;2023-09-12T13:17:10;8.45;;;4.78;;
36205;SDS011;22242;48.796;9.930;2023-09-12T13:19:38;6.22;;;5.13;;
36205;SDS011;22242;48.796;9.930;2023-09-12T13:22:05;5.85;;;4.75;;
36205;SDS011;22242;48.796;9.930;2023-09-12T13:24:32;8.27;;;5.88;;
36205;SDS011;22242;48.796;9.930;2023-09-12T13:26:59;7.35;;;4.68;;
36205;SDS011;22242;48.796;9.930;2023-09-12T13:29:27;8.15;;;4.55;;
36205;SDS011;22242;48.796;9.930;2023-09-12T13:31:54;9.82;;;5.13;;
36205;SDS011;22242;48.796;9.930;2023-09-12T13:34:21;6.03;;;5.05;;
36205;SDS011;22242;48.796;9.930;2023-09-12T13:36:49;5.68;;;5.18;;
36205;SDS011;22242;48.796;9.930;2023-09-12T13:39:16;6.28;;;5.00;;
36205;SDS011;22242;48.796;9.930;2023-09-12T13:41:43;5.57;;;5.00;;
36205;SDS011;22242;48.796;9.930;2023-09-12T13:44:11;5.35;;;4.85;;
36205;SDS011;22242;48.796;9.930;2023-09-12T13:46:38;5.90;;;4.90;;
36205;SDS011;22242;48.796;9.930;2023-09-12T13:49:05;8.32;;;4.72;;
36205;SDS011;22242;48.796;9.930;2023-09-12T13:51:32;8.35;;;5.00;;
36205;SDS011;22242;48.796;9.930;2023-09-12T13:54:00;7.68;;;4.90;;
36205;SDS011;22242;48.796;9.930;2023-09-12T13:56:28;6.10;;;5.07;;
36205;SDS011;22242;48.796;9.930;2023-09-12T13:58:55;9.02;;;5.60;;
36205;SDS011;22242;48.796;9.930;2023-09-12T14:01:22;5.47;;;4.97;;
36205;SDS011;22242;48.796;9.930;2023-09-12T14:03:49;5.53;;;4.80;;
36205;SDS011;22242;48.796;9.930;2023-09-12T14:06:17;5.15;;;4.65;;
36205;SDS011;22242;48.796;9.930;2023-09-12T14:08:44;6.88;;;5.00;;
36205;SDS011;22242;48.796;9.930;2023-09-12T14:11:13;6.25;;;5.20;;
36205;SDS011;22242;48.796;9.930;2023-09-12T14:13:39;5.50;;;5.00;;
36205;SDS011;22242;48.796;9.930;2023-09-12T14:16:07;5.05;;;4.63;;
36205;SDS011;22242;48.796;9.930;2023-09-12T14:18:34;5.50;;;5.00;;
36205;SDS011;22242;48.796;9.930;2023-09-12T14:21:02;5.75;;;5.10;;
36205;SDS011;22242;48.796;9.930;2023-09-12T14:23:29;7.22;;;5.38;;
36205;SDS011;22242;48.796;9.930;2023-09-12T14:25:56;6.82;;;5.05;;
36205;SDS011;22242;48.796;9.930;2023-09-12T14:28:24;7.03;;;5.13;;
36205;SDS011;22242;48.796;9.930;2023-09-12T14:30:51;6.03;;;4.72;;
36205;SDS011;22242;48.796;9.930;2023-09-12T14:33:18;5.57;;;5.07;;
36205;SDS011;22242;48.796;9.930;2023-09-12T14:35:46;8.38;;;5.38;;
36205;SDS011;22242;48.796;9.930;2023-09-12T14:38:13;7.20;;;4.97;;
36205;SDS011;22242;48.796;9.930;2023-09-12T14:40:40;5.55;;;5.05;;
36205;SDS011;22242;48.796;9.930;2023-09-12T14:43:07;7.32;;;5.25;;
36205;SDS011;22242;48.796;9.930;2023-09-12T14:45:36;6.95;;;5.18;;
36205;SDS011;22242;48.796;9.930;2023-09-12T14:48:04;5.80;;;4.97;;
36205;SDS011;22242;48.796;9.930;2023-09-12T14:50:32;6.55;;;5.13;;
36205;SDS011;22242;48.796;9.930;2023-09-12T14:52:59;9.27;;;5.25;;
36205;SDS011;22242;48.796;9.930;2023-09-12T14:55:26;7.70;;;5.25;;
36205;SDS011;22242;48.796;9.930;2023-09-12T14:57:53;7.88;;;5.93;;
36205;SDS011;22242;48.796;9.930;2023-09-12T15:00:22;5.93;;;5.32;;
36205;SDS011;22242;48.796;9.930;2023-09-12T15:02:50;12.48;;;6.30;;